sensor_id;sensor_type;location;lat;lon;timestamp;P1;durP1;ratioP1;P2;durP2;ratioP2
29776;SDS011;16677;52.224;7.484;2022-12-18T00:01:15;43.33;;;26.70;;
29776;SDS011;16677;52.224;7.484;2022-12-18T00:03:44;43.17;;;25.67;;
29776;SDS011;16677;52.224;7.484;2022-12-18T00:06:12;46.03;;;26.50;;
29776;SDS011;16677;52.224;7.484;2022-12-18T00:08:40;39.00;;;24.37;;
29776;SDS011;16677;52.224;7.484;2022-12-18T00:11:10;43.93;;;26.17;;
29776;SDS011;16677;52.224;7.484;2022-12-18T00:13:39;42.00;;;26.60;;
29776;SDS011;16677;52.224;7.484;2022-12-18T00:16:08;46.33;;;27.07;;
29776;SDS011;16677;52.224;7.484;2022-12-18T00:18:37;48.57;;;27.23;;
29776;SDS011;16677;52.224;7.484;2022-12-18T00:21:06;44.13;;;27.33;;
29776;SDS011;16677;52.224;7.484;2022-12-18T00:23:35;47.70;;;27.53;;
29776;SDS011;16677;52.224;7.484;2022-12-18T00:26:08;55.33;;;28.40;;
29776;SDS011;16677;52.224;7.484;2022-12-18T04:50:06;44.80;;;33.08;;
29776;SDS011;16677;52.224;7.484;2022-12-18T04:52:33;41.33;;;27.50;;
29776;SDS011;16677;52.224;7.484;2022-12-18T04:55:01;39.43;;;26.50;;
29776;SDS011;16677;52.224;7.484;2022-12-18T04:57:28;41.50;;;26.47;;
29776;SDS011;16677;52.224;7.484;2022-12-18T04:59:55;42.10;;;26.23;;
29776;SDS011;16677;52.224;7.484;2022-12-18T05:02:22;47.13;;;25.70;;
29776;SDS011;16677;52.224;7.484;2022-12-18T05:04:49;39.87;;;25.23;;
29776;SDS011;16677;52.224;7.484;2022-12-18T05:07:15;41.73;;;25.03;;
29776;SDS011;16677;52.224;7.484;2022-12-18T05:09:42;40.93;;;24.60;;
29776;SDS011;16677;52.224;7.484;2022-12-18T05:12:10;37.33;;;25.17;;
29776;SDS011;16677;52.224;7.484;2022-12-18T05:14:37;41.67;;;24.80;;
29776;SDS011;16677;52.224;7.484;2022-12-18T05:17:04;40.17;;;24.50;;
29776;SDS011;16677;52.224;7.484;2022-12-18T05:19:31;42.47;;;24.77;;
29776;SDS011;16677;52.224;7.484;2022-12-18T05:22:00;38.23;;;23.03;;
29776;SDS011;16677;52.224;7.484;2022-12-18T05:24:27;38.63;;;24.37;;
29776;SDS011;16677;52.224;7.484;2022-12-18T05:26:54;36.90;;;24.13;;
29776;SDS011;16677;52.224;7.484;2022-12-18T05:29:21;36.57;;;22.50;;
29776;SDS011;16677;52.224;7.484;2022-12-18T05:31:48;40.40;;;24.47;;
29776;SDS011;16677;52.224;7.484;2022-12-18T05:34:15;38.90;;;22.93;;
29776;SDS011;16677;52.224;7.484;2022-12-18T05:36:43;40.30;;;23.40;;
29776;SDS011;16677;52.224;7.484;2022-12-18T05:39:10;35.07;;;21.90;;
29776;SDS011;16677;52.224;7.484;2022-12-18T05:41:37;36.93;;;21.70;;
29776;SDS011;16677;52.224;7.484;2022-12-18T05:44:04;35.37;;;21.63;;
29776;SDS011;16677;52.224;7.484;2022-12-18T05:46:31;32.60;;;21.83;;
29776;SDS011;16677;52.224;7.484;2022-12-18T05:49:01;33.03;;;20.97;;
29776;SDS011;16677;52.224;7.484;2022-12-18T05:51:28;34.37;;;21.10;;
29776;SDS011;16677;52.224;7.484;2022-12-18T05:53:55;31.63;;;20.40;;
29776;SDS011;16677;52.224;7.484;2022-12-18T05:56:22;33.60;;;20.43;;
29776;SDS011;16677;52.224;7.484;2022-12-18T05:58:52;30.50;;;19.90;;
29776;SDS011;16677;52.224;7.484;2022-12-18T06:01:21;34.13;;;19.70;;
29776;SDS011;16677;52.224;7.484;2022-12-18T06:03:50;30.80;;;19.53;;
29776;SDS011;16677;52.224;7.484;2022-12-18T06:06:25;31.27;;;20.47;;
29776;SDS011;16677;52.224;7.484;2022-12-18T06:08:53;24.30;;;17.53;;
29776;SDS011;16677;52.224;7.484;2022-12-18T06:11:22;33.30;;;20.17;;
29776;SDS011;16677;52.224;7.484;2022-12-18T06:13:51;30.13;;;20.50;;
29776;SDS011;16677;52.224;7.484;2022-12-18T06:16:24;31.37;;;20.13;;
29776;SDS011;16677;52.224;7.484;2022-12-18T06:18:51;28.23;;;19.00;;
29776;SDS011;16677;52.224;7.484;2022-12-18T06:21:18;24.70;;;17.67;;
29776;SDS011;16677;52.224;7.484;2022-12-18T06:23:45;28.27;;;17.80;;
29776;SDS011;16677;52.224;7.484;2022-12-18T06:26:12;26.57;;;17.20;;
29776;SDS011;16677;52.224;7.484;2022-12-18T06:28:40;24.93;;;17.03;;
29776;SDS011;16677;52.224;7.484;2022-12-18T06:31:07;24.03;;;15.87;;
29776;SDS011;16677;52.224;7.484;2022-12-18T06:33:35;26.13;;;16.87;;
29776;SDS011;16677;52.224;7.484;2022-12-18T06:36:04;24.47;;;16.50;;
29776;SDS011;16677;52.224;7.484;2022-12-18T06:38:33;26.67;;;16.63;;
29776;SDS011;16677;52.224;7.484;2022-12-18T06:41:12;24.67;;;16.47;;
29776;SDS011;16677;52.224;7.484;2022-12-18T06:43:41;22.67;;;15.00;;
29776;SDS011;16677;52.224;7.484;2022-12-18T06:46:12;22.90;;;16.63;;
29776;SDS011;16677;52.224;7.484;2022-12-18T06:48:39;24.23;;;16.53;;
29776;SDS011;16677;52.224;7.484;2022-12-18T06:51:06;24.00;;;16.47;;
29776;SDS011;16677;52.224;7.484;2022-12-18T06:53:33;26.27;;;17.33;;
29776;SDS011;16677;52.224;7.484;2022-12-18T06:56:04;25.47;;;16.50;;
29776;SDS011;16677;52.224;7.484;2022-12-18T06:58:36;25.70;;;17.17;;
29776;SDS011;16677;52.224;7.484;2022-12-18T07:01:04;27.90;;;17.07;;
29776;SDS011;16677;52.224;7.484;2022-12-18T07:06:02;27.87;;;17.90;;
29776;SDS011;16677;52.224;7.484;2022-12-18T07:08:29;27.50;;;17.60;;
29776;SDS011;16677;52.224;7.484;2022-12-18T07:10:57;24.60;;;16.87;;
29776;SDS011;16677;52.224;7.484;2022-12-18T07:13:24;25.67;;;15.27;;
29776;SDS011;16677;52.224;7.484;2022-12-18T07:15:52;28.73;;;18.23;;
29776;SDS011;16677;52.224;7.484;2022-12-18T07:18:19;20.00;;;13.90;;
29776;SDS011;16677;52.224;7.484;2022-12-18T07:20:46;25.80;;;16.17;;
29776;SDS011;16677;52.224;7.484;2022-12-18T07:23:14;21.93;;;15.20;;
29776;SDS011;16677;52.224;7.484;2022-12-18T07:25:41;20.13;;;13.57;;
29776;SDS011;16677;52.224;7.484;2022-12-18T07:28:08;19.00;;;13.43;;
29776;SDS011;16677;52.224;7.484;2022-12-18T07:30:42;17.80;;;12.53;;
29776;SDS011;16677;52.224;7.484;2022-12-18T07:33:09;17.03;;;12.43;;
29776;SDS011;16677;52.224;7.484;2022-12-18T07:35:36;20.20;;;12.87;;
29776;SDS011;16677;52.224;7.484;2022-12-18T07:38:03;16.97;;;12.23;;
29776;SDS011;16677;52.224;7.484;2022-12-18T07:40:30;15.80;;;10.43;;
29776;SDS011;16677;52.224;7.484;2022-12-18T07:42:57;15.20;;;10.73;;
29776;SDS011;16677;52.224;7.484;2022-12-18T07:45:24;13.60;;;10.17;;
29776;SDS011;16677;52.224;7.484;2022-12-18T07:47:51;15.93;;;9.37;;
29776;SDS011;16677;52.224;7.484;2022-12-18T07:50:18;12.97;;;9.67;;
29776;SDS011;16677;52.224;7.484;2022-12-18T07:52:45;13.87;;;10.33;;
29776;SDS011;16677;52.224;7.484;2022-12-18T07:55:12;11.70;;;9.03;;
29776;SDS011;16677;52.224;7.484;2022-12-18T07:57:39;13.52;;;11.65;;
29776;SDS011;16677;52.224;7.484;2022-12-18T08:00:17;13.38;;;10.95;;
29776;SDS011;16677;52.224;7.484;2022-12-18T08:02:46;12.30;;;11.00;;
29776;SDS011;16677;52.224;7.484;2022-12-18T08:05:13;12.65;;;11.05;;
29776;SDS011;16677;52.224;7.484;2022-12-18T08:07:40;11.83;;;8.23;;
29776;SDS011;16677;52.224;7.484;2022-12-18T08:12:34;11.43;;;10.00;;
29776;SDS011;16677;52.224;7.484;2022-12-18T08:57:12;10.83;;;8.50;;
29776;SDS011;16677;52.224;7.484;2022-12-18T08:59:39;11.50;;;8.30;;
29776;SDS011;16677;52.224;7.484;2022-12-18T09:02:07;11.73;;;9.07;;
29776;SDS011;16677;52.224;7.484;2022-12-18T09:04:37;11.10;;;8.83;;
29776;SDS011;16677;52.224;7.484;2022-12-18T09:07:04;12.87;;;9.50;;
29776;SDS011;16677;52.224;7.484;2022-12-18T09:09:31;11.40;;;8.53;;
29776;SDS011;16677;52.224;7.484;2022-12-18T09:11:58;13.77;;;9.17;;
29776;SDS011;16677;52.224;7.484;2022-12-18T09:14:26;9.37;;;7.97;;
29776;SDS011;16677;52.224;7.484;2022-12-18T09:16:53;10.40;;;8.63;;
29776;SDS011;16677;52.224;7.484;2022-12-18T09:19:20;12.70;;;8.60;;
29776;SDS011;16677;52.224;7.484;2022-12-18T09:21:46;10.70;;;8.70;;
29776;SDS011;16677;52.224;7.484;2022-12-18T09:24:14;11.27;;;8.53;;
29776;SDS011;16677;52.224;7.484;2022-12-18T09:26:42;11.93;;;8.83;;
29776;SDS011;16677;52.224;7.484;2022-12-18T09:29:12;14.87;;;10.00;;
29776;SDS011;16677;52.224;7.484;2022-12-18T09:31:41;12.40;;;9.43;;
29776;SDS011;16677;52.224;7.484;2022-12-18T09:34:08;13.70;;;10.17;;
29776;SDS011;16677;52.224;7.484;2022-12-18T09:36:35;15.03;;;10.13;;
29776;SDS011;16677;52.224;7.484;2022-12-18T09:39:02;16.00;;;10.70;;
29776;SDS011;16677;52.224;7.484;2022-12-18T09:44:34;12.03;;;10.07;;
29776;SDS011;16677;52.224;7.484;2022-12-18T09:47:12;17.73;;;11.23;;
29776;SDS011;16677;52.224;7.484;2022-12-18T09:49:55;13.00;;;10.00;;
29776;SDS011;16677;52.224;7.484;2022-12-18T09:52:44;12.37;;;9.50;;
29776;SDS011;16677;52.224;7.484;2022-12-18T09:55:36;12.13;;;9.20;;
29776;SDS011;16677;52.224;7.484;2022-12-18T09:58:15;15.67;;;9.97;;
29776;SDS011;16677;52.224;7.484;2022-12-18T10:00:47;13.03;;;10.30;;
29776;SDS011;16677;52.224;7.484;2022-12-18T10:03:14;14.63;;;10.97;;
29776;SDS011;16677;52.224;7.484;2022-12-18T10:08:36;13.17;;;10.00;;
29776;SDS011;16677;52.224;7.484;2022-12-18T10:19:54;12.70;;;9.60;;
29776;SDS011;16677;52.224;7.484;2022-12-18T10:24:59;12.00;;;9.90;;
29776;SDS011;16677;52.224;7.484;2022-12-18T10:27:31;15.13;;;10.00;;
29776;SDS011;16677;52.224;7.484;2022-12-18T10:29:58;14.00;;;9.50;;
29776;SDS011;16677;52.224;7.484;2022-12-18T10:32:29;11.87;;;9.37;;
29776;SDS011;16677;52.224;7.484;2022-12-18T10:34:57;13.70;;;10.10;;
29776;SDS011;16677;52.224;7.484;2022-12-18T10:37:27;12.67;;;9.73;;
29776;SDS011;16677;52.224;7.484;2022-12-18T10:40:15;13.50;;;10.00;;
29776;SDS011;16677;52.224;7.484;2022-12-18T10:42:55;12.53;;;10.37;;
29776;SDS011;16677;52.224;7.484;2022-12-18T10:45:38;11.60;;;9.50;;
29776;SDS011;16677;52.224;7.484;2022-12-18T10:48:17;12.00;;;9.73;;
29776;SDS011;16677;52.224;7.484;2022-12-18T10:50:46;11.97;;;9.77;;
29776;SDS011;16677;52.224;7.484;2022-12-18T10:53:36;10.77;;;8.97;;
29776;SDS011;16677;52.224;7.484;2022-12-18T10:56:04;11.70;;;9.30;;
29776;SDS011;16677;52.224;7.484;2022-12-18T10:58:34;13.77;;;9.80;;
29776;SDS011;16677;52.224;7.484;2022-12-18T11:06:33;12.07;;;8.60;;
29776;SDS011;16677;52.224;7.484;2022-12-18T11:09:21;15.43;;;9.67;;
29776;SDS011;16677;52.224;7.484;2022-12-18T11:11:50;11.90;;;9.40;;
29776;SDS011;16677;52.224;7.484;2022-12-18T11:14:24;11.07;;;9.00;;
29776;SDS011;16677;52.224;7.484;2022-12-18T11:16:57;10.90;;;9.00;;
29776;SDS011;16677;52.224;7.484;2022-12-18T11:19:51;12.70;;;8.97;;
29776;SDS011;16677;52.224;7.484;2022-12-18T11:22:45;13.70;;;8.47;;
29776;SDS011;16677;52.224;7.484;2022-12-18T11:25:23;9.63;;;8.27;;
29776;SDS011;16677;52.224;7.484;2022-12-18T11:30:30;14.60;;;9.83;;
29776;SDS011;16677;52.224;7.484;2022-12-18T11:33:10;12.27;;;9.83;;
29776;SDS011;16677;52.224;7.484;2022-12-18T11:35:44;13.03;;;8.80;;
29776;SDS011;16677;52.224;7.484;2022-12-18T11:38:20;11.63;;;8.30;;
29776;SDS011;16677;52.224;7.484;2022-12-18T11:41:36;11.20;;;8.53;;
29776;SDS011;16677;52.224;7.484;2022-12-18T11:44:18;12.87;;;8.40;;
29776;SDS011;16677;52.224;7.484;2022-12-18T11:46:52;10.30;;;7.80;;
29776;SDS011;16677;52.224;7.484;2022-12-18T11:49:28;11.93;;;8.20;;
29776;SDS011;16677;52.224;7.484;2022-12-18T11:54:42;18.10;;;8.20;;
29776;SDS011;16677;52.224;7.484;2022-12-18T11:57:13;14.40;;;8.83;;
29776;SDS011;16677;52.224;7.484;2022-12-18T12:10:45;14.23;;;9.00;;
29776;SDS011;16677;52.224;7.484;2022-12-18T12:16:12;13.30;;;8.80;;
29776;SDS011;16677;52.224;7.484;2022-12-18T12:21:34;12.33;;;9.07;;
29776;SDS011;16677;52.224;7.484;2022-12-18T12:24:14;9.23;;;8.27;;
29776;SDS011;16677;52.224;7.484;2022-12-18T12:27:10;11.67;;;8.37;;
29776;SDS011;16677;52.224;7.484;2022-12-18T12:30:07;10.20;;;7.57;;
29776;SDS011;16677;52.224;7.484;2022-12-18T12:32:53;12.67;;;8.30;;
29776;SDS011;16677;52.224;7.484;2022-12-18T12:38:16;10.20;;;7.50;;
29776;SDS011;16677;52.224;7.484;2022-12-18T12:41:17;16.93;;;8.53;;
29776;SDS011;16677;52.224;7.484;2022-12-18T12:44:07;15.13;;;12.80;;
29776;SDS011;16677;52.224;7.484;2022-12-18T12:46:39;11.27;;;8.30;;
29776;SDS011;16677;52.224;7.484;2022-12-18T12:49:14;9.67;;;7.77;;
29776;SDS011;16677;52.224;7.484;2022-12-18T12:51:45;10.40;;;7.57;;
29776;SDS011;16677;52.224;7.484;2022-12-18T12:54:19;8.93;;;7.67;;
29776;SDS011;16677;52.224;7.484;2022-12-18T13:02:33;9.53;;;6.87;;
29776;SDS011;16677;52.224;7.484;2022-12-18T13:08:03;9.80;;;7.07;;
29776;SDS011;16677;52.224;7.484;2022-12-18T13:10:34;11.30;;;7.40;;
29776;SDS011;16677;52.224;7.484;2022-12-18T13:13:08;10.13;;;7.20;;
29776;SDS011;16677;52.224;7.484;2022-12-18T13:15:39;9.00;;;7.33;;
29776;SDS011;16677;52.224;7.484;2022-12-18T13:18:19;9.23;;;6.87;;
29776;SDS011;16677;52.224;7.484;2022-12-18T13:23:27;11.87;;;7.33;;
29776;SDS011;16677;52.224;7.484;2022-12-18T13:36:54;10.80;;;7.53;;
29776;SDS011;16677;52.224;7.484;2022-12-18T13:39:32;10.60;;;8.00;;
29776;SDS011;16677;52.224;7.484;2022-12-18T13:44:33;7.63;;;6.50;;
29776;SDS011;16677;52.224;7.484;2022-12-18T13:49:57;8.77;;;6.37;;
29776;SDS011;16677;52.224;7.484;2022-12-18T13:52:25;9.33;;;6.80;;
29776;SDS011;16677;52.224;7.484;2022-12-18T13:54:55;9.10;;;6.50;;
29776;SDS011;16677;52.224;7.484;2022-12-18T13:57:28;8.37;;;6.70;;
29776;SDS011;16677;52.224;7.484;2022-12-18T14:02:50;8.27;;;6.67;;
29776;SDS011;16677;52.224;7.484;2022-12-18T14:05:22;9.97;;;6.20;;
29776;SDS011;16677;52.224;7.484;2022-12-18T14:07:54;8.43;;;6.70;;
29776;SDS011;16677;52.224;7.484;2022-12-18T14:10:25;8.23;;;6.50;;
29776;SDS011;16677;52.224;7.484;2022-12-18T14:13:15;9.07;;;6.73;;
29776;SDS011;16677;52.224;7.484;2022-12-18T14:16:01;8.20;;;7.10;;
29776;SDS011;16677;52.224;7.484;2022-12-18T14:21:29;9.13;;;6.93;;
29776;SDS011;16677;52.224;7.484;2022-12-18T14:24:20;8.70;;;6.73;;
29776;SDS011;16677;52.224;7.484;2022-12-18T14:26:48;8.13;;;6.50;;
29776;SDS011;16677;52.224;7.484;2022-12-18T14:29:29;7.53;;;5.90;;
29776;SDS011;16677;52.224;7.484;2022-12-18T14:34:44;9.73;;;6.63;;
29776;SDS011;16677;52.224;7.484;2022-12-18T14:37:21;7.90;;;6.17;;
29776;SDS011;16677;52.224;7.484;2022-12-18T14:42:20;9.43;;;7.20;;
29776;SDS011;16677;52.224;7.484;2022-12-18T14:44:47;8.13;;;6.47;;
29776;SDS011;16677;52.224;7.484;2022-12-18T14:47:34;9.27;;;7.20;;
29776;SDS011;16677;52.224;7.484;2022-12-18T14:50:01;9.23;;;6.70;;
29776;SDS011;16677;52.224;7.484;2022-12-18T14:52:28;10.70;;;7.23;;
29776;SDS011;16677;52.224;7.484;2022-12-18T14:54:58;9.63;;;7.20;;
29776;SDS011;16677;52.224;7.484;2022-12-18T14:57:25;7.93;;;6.07;;
29776;SDS011;16677;52.224;7.484;2022-12-18T15:00:05;6.77;;;5.83;;
29776;SDS011;16677;52.224;7.484;2022-12-18T15:02:40;7.13;;;5.87;;
29776;SDS011;16677;52.224;7.484;2022-12-18T15:05:19;7.13;;;6.17;;
29776;SDS011;16677;52.224;7.484;2022-12-18T15:07:52;9.37;;;6.20;;
29776;SDS011;16677;52.224;7.484;2022-12-18T15:10:24;7.77;;;6.00;;
29776;SDS011;16677;52.224;7.484;2022-12-18T15:20:40;6.97;;;6.00;;
29776;SDS011;16677;52.224;7.484;2022-12-18T15:23:28;7.50;;;5.80;;
29776;SDS011;16677;52.224;7.484;2022-12-18T15:26:18;8.93;;;6.57;;
29776;SDS011;16677;52.224;7.484;2022-12-18T15:28:48;8.70;;;6.53;;
29776;SDS011;16677;52.224;7.484;2022-12-18T15:36:20;14.30;;;7.30;;
29776;SDS011;16677;52.224;7.484;2022-12-18T15:38:52;14.33;;;8.00;;
29776;SDS011;16677;52.224;7.484;2022-12-18T15:41:27;10.47;;;6.87;;
29776;SDS011;16677;52.224;7.484;2022-12-18T15:43:54;12.37;;;7.67;;
29776;SDS011;16677;52.224;7.484;2022-12-18T15:46:22;17.70;;;12.60;;
29776;SDS011;16677;52.224;7.484;2022-12-18T15:48:51;14.33;;;9.03;;
29776;SDS011;16677;52.224;7.484;2022-12-18T15:51:34;8.07;;;6.50;;
29776;SDS011;16677;52.224;7.484;2022-12-18T15:54:03;7.80;;;6.50;;
29776;SDS011;16677;52.224;7.484;2022-12-18T15:56:32;10.43;;;6.33;;
29776;SDS011;16677;52.224;7.484;2022-12-18T15:59:18;7.50;;;6.30;;
29776;SDS011;16677;52.224;7.484;2022-12-18T16:01:47;7.07;;;6.07;;
29776;SDS011;16677;52.224;7.484;2022-12-18T16:04:17;7.37;;;6.23;;
29776;SDS011;16677;52.224;7.484;2022-12-18T16:06:47;9.43;;;5.60;;
29776;SDS011;16677;52.224;7.484;2022-12-18T16:09:34;9.07;;;6.73;;
29776;SDS011;16677;52.224;7.484;2022-12-18T16:12:02;8.07;;;5.70;;
29776;SDS011;16677;52.224;7.484;2022-12-18T16:14:30;7.47;;;5.87;;
29776;SDS011;16677;52.224;7.484;2022-12-18T16:16:59;7.27;;;6.10;;
29776;SDS011;16677;52.224;7.484;2022-12-18T16:19:27;7.70;;;6.10;;
29776;SDS011;16677;52.224;7.484;2022-12-18T16:21:56;8.40;;;6.13;;
29776;SDS011;16677;52.224;7.484;2022-12-18T16:24:25;7.60;;;5.80;;
29776;SDS011;16677;52.224;7.484;2022-12-18T16:26:56;8.80;;;5.70;;
29776;SDS011;16677;52.224;7.484;2022-12-18T16:29:26;6.07;;;5.27;;
29776;SDS011;16677;52.224;7.484;2022-12-18T16:31:57;9.23;;;6.40;;
29776;SDS011;16677;52.224;7.484;2022-12-18T16:34:32;9.13;;;5.43;;
29776;SDS011;16677;52.224;7.484;2022-12-18T16:37:02;9.27;;;5.53;;
29776;SDS011;16677;52.224;7.484;2022-12-18T16:39:34;11.33;;;8.17;;
29776;SDS011;16677;52.224;7.484;2022-12-18T16:42:03;9.77;;;7.20;;
29776;SDS011;16677;52.224;7.484;2022-12-18T16:44:50;10.17;;;6.73;;
29776;SDS011;16677;52.224;7.484;2022-12-18T16:47:17;7.53;;;6.07;;
29776;SDS011;16677;52.224;7.484;2022-12-18T16:49:44;6.83;;;5.27;;
29776;SDS011;16677;52.224;7.484;2022-12-18T16:52:12;8.17;;;5.77;;
29776;SDS011;16677;52.224;7.484;2022-12-18T16:54:39;6.57;;;5.23;;
29776;SDS011;16677;52.224;7.484;2022-12-18T16:57:06;8.97;;;6.00;;
29776;SDS011;16677;52.224;7.484;2022-12-18T16:59:35;8.87;;;5.97;;
29776;SDS011;16677;52.224;7.484;2022-12-18T17:02:02;9.50;;;5.87;;
29776;SDS011;16677;52.224;7.484;2022-12-18T17:04:29;8.63;;;6.20;;
29776;SDS011;16677;52.224;7.484;2022-12-18T17:06:56;9.60;;;6.07;;
29776;SDS011;16677;52.224;7.484;2022-12-18T17:09:23;8.67;;;6.03;;
29776;SDS011;16677;52.224;7.484;2022-12-18T17:11:53;8.43;;;6.00;;
29776;SDS011;16677;52.224;7.484;2022-12-18T17:14:21;11.10;;;6.27;;
29776;SDS011;16677;52.224;7.484;2022-12-18T17:16:49;9.33;;;7.07;;
29776;SDS011;16677;52.224;7.484;2022-12-18T17:19:37;7.30;;;6.47;;
29776;SDS011;16677;52.224;7.484;2022-12-18T17:22:04;7.40;;;5.93;;
29776;SDS011;16677;52.224;7.484;2022-12-18T17:24:31;21.33;;;7.73;;
29776;SDS011;16677;52.224;7.484;2022-12-18T17:27:00;7.50;;;6.20;;
29776;SDS011;16677;52.224;7.484;2022-12-18T17:29:28;8.53;;;6.67;;
29776;SDS011;16677;52.224;7.484;2022-12-18T17:31:55;14.17;;;6.90;;
29776;SDS011;16677;52.224;7.484;2022-12-18T17:34:25;8.90;;;6.63;;
29776;SDS011;16677;52.224;7.484;2022-12-18T17:36:52;12.60;;;7.07;;
29776;SDS011;16677;52.224;7.484;2022-12-18T17:39:19;9.83;;;6.87;;
29776;SDS011;16677;52.224;7.484;2022-12-18T17:41:47;10.43;;;6.63;;
29776;SDS011;16677;52.224;7.484;2022-12-18T17:44:14;7.67;;;6.47;;
29776;SDS011;16677;52.224;7.484;2022-12-18T17:46:42;9.17;;;7.10;;
29776;SDS011;16677;52.224;7.484;2022-12-18T17:49:09;8.93;;;7.03;;
29776;SDS011;16677;52.224;7.484;2022-12-18T17:51:37;10.33;;;6.93;;
29776;SDS011;16677;52.224;7.484;2022-12-18T17:54:04;11.00;;;7.33;;
29776;SDS011;16677;52.224;7.484;2022-12-18T17:56:31;9.53;;;7.17;;
29776;SDS011;16677;52.224;7.484;2022-12-18T17:58:58;11.23;;;7.20;;
29776;SDS011;16677;52.224;7.484;2022-12-18T18:01:25;11.63;;;7.23;;
29776;SDS011;16677;52.224;7.484;2022-12-18T18:03:53;11.83;;;7.33;;
29776;SDS011;16677;52.224;7.484;2022-12-18T18:06:23;7.80;;;7.00;;
29776;SDS011;16677;52.224;7.484;2022-12-18T18:08:50;10.30;;;7.73;;
29776;SDS011;16677;52.224;7.484;2022-12-18T18:11:18;10.77;;;7.67;;
29776;SDS011;16677;52.224;7.484;2022-12-18T18:14:06;11.07;;;7.60;;
29776;SDS011;16677;52.224;7.484;2022-12-18T18:16:38;10.03;;;7.63;;
29776;SDS011;16677;52.224;7.484;2022-12-18T18:19:08;9.80;;;7.37;;
29776;SDS011;16677;52.224;7.484;2022-12-18T18:21:37;10.53;;;8.23;;
29776;SDS011;16677;52.224;7.484;2022-12-18T18:24:06;11.07;;;8.30;;
29776;SDS011;16677;52.224;7.484;2022-12-18T18:26:35;11.37;;;7.90;;
29776;SDS011;16677;52.224;7.484;2022-12-18T18:29:03;14.60;;;8.67;;
29776;SDS011;16677;52.224;7.484;2022-12-18T18:31:31;12.47;;;9.03;;
29776;SDS011;16677;52.224;7.484;2022-12-18T18:34:07;12.50;;;8.90;;
29776;SDS011;16677;52.224;7.484;2022-12-18T18:36:39;10.60;;;8.63;;
29776;SDS011;16677;52.224;7.484;2022-12-18T18:39:05;11.30;;;9.17;;
29776;SDS011;16677;52.224;7.484;2022-12-18T18:41:35;14.23;;;9.07;;
29776;SDS011;16677;52.224;7.484;2022-12-18T18:44:02;13.57;;;9.37;;
29776;SDS011;16677;52.224;7.484;2022-12-18T18:46:30;11.97;;;9.47;;
29776;SDS011;16677;52.224;7.484;2022-12-18T18:48:56;13.17;;;9.37;;
29776;SDS011;16677;52.224;7.484;2022-12-18T18:51:23;15.13;;;10.00;;
29776;SDS011;16677;52.224;7.484;2022-12-18T18:53:56;14.77;;;10.27;;
29776;SDS011;16677;52.224;7.484;2022-12-18T18:56:25;19.77;;;17.70;;
29776;SDS011;16677;52.224;7.484;2022-12-18T18:59:13;14.53;;;9.83;;
29776;SDS011;16677;52.224;7.484;2022-12-18T19:01:39;13.87;;;10.50;;
29776;SDS011;16677;52.224;7.484;2022-12-18T19:04:07;15.60;;;10.97;;
29776;SDS011;16677;52.224;7.484;2022-12-18T19:06:34;11.83;;;9.60;;
29776;SDS011;16677;52.224;7.484;2022-12-18T19:09:02;16.03;;;12.33;;
29776;SDS011;16677;52.224;7.484;2022-12-18T19:11:30;13.70;;;11.07;;
29776;SDS011;16677;52.224;7.484;2022-12-18T19:14:18;14.90;;;10.53;;
29776;SDS011;16677;52.224;7.484;2022-12-18T19:16:45;12.43;;;9.57;;
29776;SDS011;16677;52.224;7.484;2022-12-18T19:19:13;13.00;;;10.60;;
29776;SDS011;16677;52.224;7.484;2022-12-18T19:21:42;15.27;;;10.70;;
29776;SDS011;16677;52.224;7.484;2022-12-18T19:24:09;15.00;;;10.60;;
29776;SDS011;16677;52.224;7.484;2022-12-18T19:26:36;13.60;;;10.87;;
29776;SDS011;16677;52.224;7.484;2022-12-18T19:29:04;15.30;;;11.33;;
29776;SDS011;16677;52.224;7.484;2022-12-18T19:31:34;15.13;;;11.27;;
29776;SDS011;16677;52.224;7.484;2022-12-18T19:34:06;17.57;;;12.33;;
29776;SDS011;16677;52.224;7.484;2022-12-18T19:36:35;15.23;;;12.20;;
29776;SDS011;16677;52.224;7.484;2022-12-18T19:39:10;16.60;;;12.30;;
29776;SDS011;16677;52.224;7.484;2022-12-18T19:41:40;17.87;;;11.07;;
29776;SDS011;16677;52.224;7.484;2022-12-18T19:44:10;14.50;;;11.60;;
29776;SDS011;16677;52.224;7.484;2022-12-18T19:46:39;15.33;;;11.83;;
29776;SDS011;16677;52.224;7.484;2022-12-18T19:49:10;15.30;;;11.67;;
29776;SDS011;16677;52.224;7.484;2022-12-18T19:51:43;16.43;;;12.27;;
29776;SDS011;16677;52.224;7.484;2022-12-18T19:54:10;17.00;;;12.53;;
29776;SDS011;16677;52.224;7.484;2022-12-18T19:56:42;14.73;;;11.70;;
29776;SDS011;16677;52.224;7.484;2022-12-18T19:59:10;14.60;;;11.10;;
29776;SDS011;16677;52.224;7.484;2022-12-18T20:01:37;15.87;;;11.70;;
29776;SDS011;16677;52.224;7.484;2022-12-18T20:04:05;15.03;;;11.60;;
29776;SDS011;16677;52.224;7.484;2022-12-18T20:06:33;16.17;;;11.47;;
29776;SDS011;16677;52.224;7.484;2022-12-18T20:09:10;19.13;;;12.13;;
29776;SDS011;16677;52.224;7.484;2022-12-18T20:11:37;17.90;;;12.67;;
29776;SDS011;16677;52.224;7.484;2022-12-18T20:14:10;14.53;;;11.27;;
29776;SDS011;16677;52.224;7.484;2022-12-18T20:16:38;18.17;;;11.97;;
29776;SDS011;16677;52.224;7.484;2022-12-18T20:19:07;15.00;;;12.40;;
29776;SDS011;16677;52.224;7.484;2022-12-18T20:21:35;16.97;;;13.40;;
29776;SDS011;16677;52.224;7.484;2022-12-18T20:24:02;20.30;;;12.90;;
29776;SDS011;16677;52.224;7.484;2022-12-18T20:26:30;17.80;;;12.97;;
29776;SDS011;16677;52.224;7.484;2022-12-18T20:28:57;19.10;;;13.10;;
29776;SDS011;16677;52.224;7.484;2022-12-18T20:31:24;17.40;;;12.80;;
29776;SDS011;16677;52.224;7.484;2022-12-18T20:33:51;18.80;;;14.53;;
29776;SDS011;16677;52.224;7.484;2022-12-18T20:36:19;17.33;;;13.20;;
29776;SDS011;16677;52.224;7.484;2022-12-18T20:38:51;19.20;;;13.90;;
29776;SDS011;16677;52.224;7.484;2022-12-18T20:41:26;18.07;;;13.03;;
29776;SDS011;16677;52.224;7.484;2022-12-18T20:44:04;18.23;;;12.70;;
29776;SDS011;16677;52.224;7.484;2022-12-18T20:46:49;18.00;;;13.33;;
29776;SDS011;16677;52.224;7.484;2022-12-18T20:49:21;21.50;;;13.87;;
29776;SDS011;16677;52.224;7.484;2022-12-18T20:51:50;18.67;;;13.70;;
29776;SDS011;16677;52.224;7.484;2022-12-18T20:54:19;18.83;;;13.63;;
29776;SDS011;16677;52.224;7.484;2022-12-18T20:56:47;21.17;;;14.83;;
29776;SDS011;16677;52.224;7.484;2022-12-18T20:59:14;18.57;;;13.73;;
29776;SDS011;16677;52.224;7.484;2022-12-18T21:01:42;20.80;;;15.10;;
29776;SDS011;16677;52.224;7.484;2022-12-18T21:04:13;20.50;;;14.67;;
29776;SDS011;16677;52.224;7.484;2022-12-18T21:06:43;19.40;;;14.27;;
29776;SDS011;16677;52.224;7.484;2022-12-18T21:09:18;21.90;;;15.93;;
29776;SDS011;16677;52.224;7.484;2022-12-18T21:11:45;19.87;;;14.53;;
29776;SDS011;16677;52.224;7.484;2022-12-18T21:14:31;22.23;;;15.57;;
29776;SDS011;16677;52.224;7.484;2022-12-18T21:16:58;19.23;;;14.47;;
29776;SDS011;16677;52.224;7.484;2022-12-18T21:19:27;20.50;;;15.43;;
29776;SDS011;16677;52.224;7.484;2022-12-18T21:21:56;20.83;;;16.27;;
29776;SDS011;16677;52.224;7.484;2022-12-18T21:24:23;21.80;;;14.93;;
29776;SDS011;16677;52.224;7.484;2022-12-18T21:26:53;21.93;;;14.80;;
29776;SDS011;16677;52.224;7.484;2022-12-18T21:29:23;21.97;;;15.07;;
29776;SDS011;16677;52.224;7.484;2022-12-18T21:31:52;19.93;;;16.10;;
29776;SDS011;16677;52.224;7.484;2022-12-18T21:34:26;20.70;;;15.13;;
29776;SDS011;16677;52.224;7.484;2022-12-18T21:36:55;22.33;;;15.20;;
29776;SDS011;16677;52.224;7.484;2022-12-18T21:39:24;22.73;;;15.93;;
29776;SDS011;16677;52.224;7.484;2022-12-18T21:41:52;24.77;;;16.63;;